sensor_id;sensor_type;location;lat;lon;timestamp;pressure;altitude;pressure_sealevel;temperature;humidity
32733;BME280;11867;51.198;11.966;2023-12-07T00:04:55;100635.66;;;3.11;100.00
32733;BME280;11867;51.198;11.966;2023-12-07T00:10:17;100646.44;;;3.11;100.00
32733;BME280;11867;51.198;11.966;2023-12-07T00:15:41;100643.75;;;2.92;100.00
32733;BME280;11867;51.198;11.966;2023-12-07T00:21:07;100647.66;;;3.15;100.00
32733;BME280;11867;51.198;11.966;2023-12-07T00:26:30;100646.94;;;2.82;100.00
32733;BME280;11867;51.198;11.966;2023-12-07T00:31:53;100651.81;;;2.92;100.00
32733;BME280;11867;51.198;11.966;2023-12-07T00:37:18;100660.41;;;2.82;100.00
32733;BME280;11867;51.198;11.966;2023-12-07T00:42:40;100652.56;;;3.55;100.00
32733;BME280;11867;51.198;11.966;2023-12-07T00:48:05;100658.88;;;3.49;100.00
32733;BME280;11867;51.198;11.966;2023-12-07T00:53:29;100662.31;;;3.37;100.00
32733;BME280;11867;51.198;11.966;2023-12-07T00:58:52;100658.31;;;2.85;100.00
32733;BME280;11867;51.198;11.966;2023-12-07T01:04:15;100668.00;;;3.48;100.00
32733;BME280;11867;51.198;11.966;2023-12-07T01:09:41;100672.63;;;3.03;100.00
32733;BME280;11867;51.198;11.966;2023-12-07T01:15:04;100675.63;;;3.32;100.00
32733;BME280;11867;51.198;11.966;2023-12-07T01:20:28;100676.53;;;3.44;100.00
32733;BME280;11867;51.198;11.966;2023-12-07T01:25:52;100678.50;;;3.37;100.00
32733;BME280;11867;51.198;11.966;2023-12-07T01:31:15;100684.03;;;3.61;100.00
32733;BME280;11867;51.198;11.966;2023-12-07T01:36:38;100690.50;;;3.90;98.33
32733;BME280;11867;51.198;11.966;2023-12-07T01:42:03;100701.25;;;3.41;100.00
32733;BME280;11867;51.198;11.966;2023-12-07T01:47:26;100713.16;;;3.34;100.00
32733;BME280;11867;51.198;11.966;2023-12-07T01:52:52;100714.06;;;3.64;100.00
32733;BME280;11867;51.198;11.966;2023-12-07T01:58:20;100720.25;;;3.28;100.00
32733;BME280;11867;51.198;11.966;2023-12-07T02:03:43;100730.81;;;3.30;100.00
32733;BME280;11867;51.198;11.966;2023-12-07T02:09:07;100724.09;;;3.20;100.00
32733;BME280;11867;51.198;11.966;2023-12-07T02:14:31;100733.78;;;3.21;100.00
32733;BME280;11867;51.198;11.966;2023-12-07T02:20:00;100733.94;;;3.08;100.00
32733;BME280;11867;51.198;11.966;2023-12-07T02:25:34;100730.38;;;3.51;100.00
32733;BME280;11867;51.198;11.966;2023-12-07T02:30:59;100733.78;;;2.78;100.00
32733;BME280;11867;51.198;11.966;2023-12-07T02:36:24;100733.72;;;3.28;100.00
32733;BME280;11867;51.198;11.966;2023-12-07T02:41:50;100740.69;;;2.92;100.00
32733;BME280;11867;51.198;11.966;2023-12-07T02:47:14;100738.09;;;3.29;100.00
32733;BME280;11867;51.198;11.966;2023-12-07T02:52:37;100746.19;;;3.66;99.50
32733;BME280;11867;51.198;11.966;2023-12-07T02:58:01;100762.44;;;3.16;100.00
32733;BME280;11867;51.198;11.966;2023-12-07T03:03:25;100763.97;;;3.30;100.00
32733;BME280;11867;51.198;11.966;2023-12-07T03:08:48;100770.03;;;3.26;100.00
32733;BME280;11867;51.198;11.966;2023-12-07T03:14:12;100774.75;;;3.30;100.00
32733;BME280;11867;51.198;11.966;2023-12-07T03:19:38;100775.09;;;3.59;100.00
32733;BME280;11867;51.198;11.966;2023-12-07T03:25:02;100778.25;;;3.56;100.00
32733;BME280;11867;51.198;11.966;2023-12-07T03:30:25;100776.06;;;3.46;100.00
32733;BME280;11867;51.198;11.966;2023-12-07T03:35:49;100788.63;;;3.34;100.00
32733;BME280;11867;51.198;11.966;2023-12-07T03:41:13;100781.97;;;3.55;100.00
32733;BME280;11867;51.198;11.966;2023-12-07T03:46:36;100781.13;;;3.36;100.00
32733;BME280;11867;51.198;11.966;2023-12-07T03:52:00;100786.41;;;3.24;100.00
32733;BME280;11867;51.198;11.966;2023-12-07T03:57:23;100800.22;;;3.34;100.00
32733;BME280;11867;51.198;11.966;2023-12-07T04:02:46;100801.06;;;3.53;99.18
32733;BME280;11867;51.198;11.966;2023-12-07T04:08:11;100802.34;;;3.51;99.67
32733;BME280;11867;51.198;11.966;2023-12-07T04:13:34;100811.34;;;3.63;99.00
32733;BME280;11867;51.198;11.966;2023-12-07T04:18:57;100807.78;;;3.88;98.16
32733;BME280;11867;51.198;11.966;2023-12-07T04:24:21;100817.34;;;3.65;97.78
32733;BME280;11867;51.198;11.966;2023-12-07T04:29:44;100827.41;;;3.76;97.39
32733;BME280;11867;51.198;11.966;2023-12-07T04:35:07;100820.13;;;3.77;96.82
32733;BME280;11867;51.198;11.966;2023-12-07T04:40:32;100825.25;;;3.41;97.92
32733;BME280;11867;51.198;11.966;2023-12-07T04:45:55;100832.28;;;3.42;98.20
32733;BME280;11867;51.198;11.966;2023-12-07T04:51:18;100834.03;;;3.55;96.50
32733;BME280;11867;51.198;11.966;2023-12-07T04:56:43;100829.34;;;3.88;95.68
32733;BME280;11867;51.198;11.966;2023-12-07T05:02:06;100834.75;;;3.88;95.49
32733;BME280;11867;51.198;11.966;2023-12-07T05:07:29;100835.91;;;3.55;95.95
32733;BME280;11867;51.198;11.966;2023-12-07T05:12:53;100833.16;;;3.36;98.78
32733;BME280;11867;51.198;11.966;2023-12-07T05:18:18;100827.09;;;3.66;98.14
32733;BME280;11867;51.198;11.966;2023-12-07T05:23:41;100832.56;;;3.78;95.31
32733;BME280;11867;51.198;11.966;2023-12-07T05:29:05;100845.38;;;3.64;96.10
32733;BME280;11867;51.198;11.966;2023-12-07T05:34:28;100857.53;;;3.92;95.80
32733;BME280;11867;51.198;11.966;2023-12-07T05:39:51;100857.22;;;3.81;95.09
32733;BME280;11867;51.198;11.966;2023-12-07T05:45:16;100857.91;;;3.77;94.96
32733;BME280;11867;51.198;11.966;2023-12-07T05:50:39;100851.97;;;3.68;94.91
32733;BME280;11867;51.198;11.966;2023-12-07T05:56:02;100854.53;;;4.37;92.51
32733;BME280;11867;51.198;11.966;2023-12-07T06:01:28;100858.53;;;3.54;98.72
32733;BME280;11867;51.198;11.966;2023-12-07T06:06:51;100867.22;;;3.56;96.56
32733;BME280;11867;51.198;11.966;2023-12-07T06:12:14;100860.81;;;4.31;92.90
32733;BME280;11867;51.198;11.966;2023-12-07T06:17:39;100862.03;;;4.35;91.97
32733;BME280;11867;51.198;11.966;2023-12-07T06:23:02;100875.50;;;4.53;91.01
32733;BME280;11867;51.198;11.966;2023-12-07T06:28:25;100878.13;;;4.04;93.24
32733;BME280;11867;51.198;11.966;2023-12-07T06:33:50;100881.22;;;4.27;91.22
32733;BME280;11867;51.198;11.966;2023-12-07T06:39:13;100882.41;;;4.49;91.25
32733;BME280;11867;51.198;11.966;2023-12-07T06:44:36;100888.34;;;3.59;96.95
32733;BME280;11867;51.198;11.966;2023-12-07T06:50:00;100891.91;;;3.96;93.86
32733;BME280;11867;51.198;11.966;2023-12-07T06:55:27;100890.25;;;3.77;98.16
32733;BME280;11867;51.198;11.966;2023-12-07T07:00:50;100895.53;;;3.65;97.17
32733;BME280;11867;51.198;11.966;2023-12-07T07:06:15;100901.16;;;3.63;96.64
32733;BME280;11867;51.198;11.966;2023-12-07T07:11:38;100907.91;;;4.16;96.50
32733;BME280;11867;51.198;11.966;2023-12-07T07:17:01;100903.25;;;4.23;93.57
32733;BME280;11867;51.198;11.966;2023-12-07T07:22:25;100908.47;;;3.81;95.12
32733;BME280;11867;51.198;11.966;2023-12-07T07:27:48;100908.59;;;3.68;96.40
32733;BME280;11867;51.198;11.966;2023-12-07T07:33:11;100920.22;;;4.31;95.13
32733;BME280;11867;51.198;11.966;2023-12-07T07:38:35;100928.53;;;4.66;92.73
32733;BME280;11867;51.198;11.966;2023-12-07T07:43:58;100934.06;;;3.97;94.72
32733;BME280;11867;51.198;11.966;2023-12-07T07:49:23;100938.63;;;4.15;93.59
32733;BME280;11867;51.198;11.966;2023-12-07T07:54:47;100935.34;;;4.13;93.67
32733;BME280;11867;51.198;11.966;2023-12-07T08:00:11;100931.59;;;4.14;93.33
32733;BME280;11867;51.198;11.966;2023-12-07T08:05:35;100939.38;;;4.04;94.24
32733;BME280;11867;51.198;11.966;2023-12-07T08:10:59;100940.16;;;4.30;94.47
32733;BME280;11867;51.198;11.966;2023-12-07T08:16:23;100940.91;;;4.37;92.49
32733;BME280;11867;51.198;11.966;2023-12-07T08:21:46;100947.88;;;4.08;93.51
32733;BME280;11867;51.198;11.966;2023-12-07T08:27:11;100945.84;;;4.21;94.52
32733;BME280;11867;51.198;11.966;2023-12-07T08:32:34;100955.53;;;3.86;95.62
32733;BME280;11867;51.198;11.966;2023-12-07T08:37:57;100962.88;;;3.78;95.78
32733;BME280;11867;51.198;11.966;2023-12-07T08:43:22;100959.59;;;3.95;95.87
32733;BME280;11867;51.198;11.966;2023-12-07T08:48:45;100967.59;;;3.58;98.10
32733;BME280;11867;51.198;11.966;2023-12-07T08:54:08;100973.97;;;3.63;97.58
32733;BME280;11867;51.198;11.966;2023-12-07T08:59:33;100976.41;;;3.40;98.59
32733;BME280;11867;51.198;11.966;2023-12-07T09:04:55;100967.69;;;3.95;96.90
32733;BME280;11867;51.198;11.966;2023-12-07T09:10:19;100974.94;;;4.19;94.36
32733;BME280;11867;51.198;11.966;2023-12-07T09:15:44;100983.38;;;4.04;94.81
32733;BME280;11867;51.198;11.966;2023-12-07T09:21:07;100988.44;;;3.94;95.97
32733;BME280;11867;51.198;11.966;2023-12-07T09:26:30;100980.28;;;4.01;95.33
32733;BME280;11867;51.198;11.966;2023-12-07T09:31:54;100975.53;;;4.21;94.43
32733;BME280;11867;51.198;11.966;2023-12-07T09:37:17;100980.00;;;4.34;94.32
32733;BME280;11867;51.198;11.966;2023-12-07T09:42:41;100981.94;;;4.02;95.25
32733;BME280;11867;51.198;11.966;2023-12-07T09:48:07;100975.03;;;4.31;93.81
32733;BME280;11867;51.198;11.966;2023-12-07T09:53:33;100985.19;;;4.11;95.03
32733;BME280;11867;51.198;11.966;2023-12-07T09:58:57;100990.38;;;3.87;96.29
32733;BME280;11867;51.198;11.966;2023-12-07T10:04:22;100979.81;;;3.86;95.96
32733;BME280;11867;51.198;11.966;2023-12-07T10:09:48;100973.47;;;3.98;96.10
32733;BME280;11867;51.198;11.966;2023-12-07T10:15:12;100974.94;;;4.19;96.09
32733;BME280;11867;51.198;11.966;2023-12-07T10:20:45;100980.03;;;4.83;92.90
32733;BME280;11867;51.198;11.966;2023-12-07T10:26:10;100978.19;;;5.14;91.32
32733;BME280;11867;51.198;11.966;2023-12-07T10:31:33;100975.84;;;4.69;92.24
32733;BME280;11867;51.198;11.966;2023-12-07T10:36:57;100963.56;;;4.54;92.99
32733;BME280;11867;51.198;11.966;2023-12-07T10:42:24;100960.59;;;4.93;92.47
32733;BME280;11867;51.198;11.966;2023-12-07T10:47:48;100950.63;;;4.75;91.61
32733;BME280;11867;51.198;11.966;2023-12-07T10:53:20;100958.19;;;5.03;90.38
32733;BME280;11867;51.198;11.966;2023-12-07T10:58:45;100957.75;;;4.88;91.90
32733;BME280;11867;51.198;11.966;2023-12-07T11:04:11;100956.19;;;4.80;91.96
32733;BME280;11867;51.198;11.966;2023-12-07T11:09:39;100957.03;;;4.80;91.08
32733;BME280;11867;51.198;11.966;2023-12-07T11:15:06;100955.28;;;5.16;90.30
32733;BME280;11867;51.198;11.966;2023-12-07T11:20:39;100955.16;;;4.62;92.50
32733;BME280;11867;51.198;11.966;2023-12-07T11:26:04;100946.53;;;4.54;92.90
32733;BME280;11867;51.198;11.966;2023-12-07T11:31:27;100942.25;;;5.13;89.79
32733;BME280;11867;51.198;11.966;2023-12-07T11:36:50;100936.66;;;4.96;89.91
32733;BME280;11867;51.198;11.966;2023-12-07T11:42:17;100937.81;;;5.19;88.69
32733;BME280;11867;51.198;11.966;2023-12-07T11:47:40;100932.19;;;5.02;88.16
32733;BME280;11867;51.198;11.966;2023-12-07T11:53:05;100931.25;;;5.38;86.44
32733;BME280;11867;51.198;11.966;2023-12-07T11:58:30;100930.97;;;5.82;84.96
32733;BME280;11867;51.198;11.966;2023-12-07T12:03:58;100933.69;;;6.17;83.08
32733;BME280;11867;51.198;11.966;2023-12-07T12:09:24;100918.63;;;7.02;79.96
32733;BME280;11867;51.198;11.966;2023-12-07T12:14:55;100914.59;;;7.51;76.11
32733;BME280;11867;51.198;11.966;2023-12-07T12:20:18;100911.19;;;8.50;75.07
32733;BME280;11867;51.198;11.966;2023-12-07T12:25:43;100902.84;;;10.13;70.99
32733;BME280;11867;51.198;11.966;2023-12-07T12:31:08;100896.66;;;12.09;61.90
32733;BME280;11867;51.198;11.966;2023-12-07T12:36:31;100906.22;;;12.17;61.31
32733;BME280;11867;51.198;11.966;2023-12-07T12:41:54;100905.28;;;13.07;56.23
32733;BME280;11867;51.198;11.966;2023-12-07T12:47:19;100912.63;;;10.62;63.24
32733;BME280;11867;51.198;11.966;2023-12-07T12:52:42;100899.41;;;11.06;66.90
32733;BME280;11867;51.198;11.966;2023-12-07T12:58:06;100903.06;;;10.49;62.94
32733;BME280;11867;51.198;11.966;2023-12-07T13:03:31;100892.78;;;12.25;59.34
32733;BME280;11867;51.198;11.966;2023-12-07T13:08:54;100902.16;;;11.27;60.18
32733;BME280;11867;51.198;11.966;2023-12-07T13:14:17;100904.72;;;8.56;68.75
32733;BME280;11867;51.198;11.966;2023-12-07T13:19:42;100897.97;;;7.81;71.69
32733;BME280;11867;51.198;11.966;2023-12-07T13:25:06;100902.16;;;6.63;75.30
32733;BME280;11867;51.198;11.966;2023-12-07T13:30:29;100897.56;;;6.12;78.03
32733;BME280;11867;51.198;11.966;2023-12-07T13:35:56;100887.88;;;6.28;76.36
32733;BME280;11867;51.198;11.966;2023-12-07T13:41:27;100878.38;;;5.90;78.77
32733;BME280;11867;51.198;11.966;2023-12-07T13:46:49;100884.38;;;5.80;78.22
32733;BME280;11867;51.198;11.966;2023-12-07T13:52:17;100902.38;;;6.10;77.61
32733;BME280;11867;51.198;11.966;2023-12-07T13:57:40;100910.97;;;5.71;78.24
32733;BME280;11867;51.198;11.966;2023-12-07T14:03:03;100895.78;;;6.05;77.66
32733;BME280;11867;51.198;11.966;2023-12-07T14:08:28;100893.06;;;5.46;80.81
32733;BME280;11867;51.198;11.966;2023-12-07T14:13:53;100905.41;;;4.70;84.75
32733;BME280;11867;51.198;11.966;2023-12-07T14:19:16;100896.56;;;5.35;82.84
32733;BME280;11867;51.198;11.966;2023-12-07T14:24:42;100894.22;;;4.67;86.37
32733;BME280;11867;51.198;11.966;2023-12-07T14:30:06;100903.84;;;4.44;88.10
32733;BME280;11867;51.198;11.966;2023-12-07T14:35:32;100900.81;;;4.22;89.31
32733;BME280;11867;51.198;11.966;2023-12-07T14:40:57;100890.44;;;4.00;91.40
32733;BME280;11867;51.198;11.966;2023-12-07T14:46:20;100896.56;;;3.46;95.43
32733;BME280;11867;51.198;11.966;2023-12-07T14:51:43;100890.53;;;4.12;92.68
32733;BME280;11867;51.198;11.966;2023-12-07T14:57:07;100867.91;;;2.94;99.97
32733;BME280;11867;51.198;11.966;2023-12-07T15:02:31;100869.66;;;3.82;94.67
32733;BME280;11867;51.198;11.966;2023-12-07T15:07:54;100870.59;;;4.62;89.97
32733;BME280;11867;51.198;11.966;2023-12-07T15:13:19;100877.25;;;4.11;90.49
32733;BME280;11867;51.198;11.966;2023-12-07T15:18:42;100861.88;;;4.30;91.43
32733;BME280;11867;51.198;11.966;2023-12-07T15:24:07;100880.13;;;3.47;95.53
32733;BME280;11867;51.198;11.966;2023-12-07T15:29:36;100876.22;;;2.54;100.00
32733;BME280;11867;51.198;11.966;2023-12-07T15:35:01;100872.63;;;2.99;99.50
32733;BME280;11867;51.198;11.966;2023-12-07T15:40:25;100875.75;;;3.53;95.34
32733;BME280;11867;51.198;11.966;2023-12-07T15:45:50;100880.81;;;3.42;95.59
32733;BME280;11867;51.198;11.966;2023-12-07T15:51:13;100885.34;;;2.85;98.30
32733;BME280;11867;51.198;11.966;2023-12-07T15:56:39;100876.47;;;3.16;98.75
32733;BME280;11867;51.198;11.966;2023-12-07T16:02:03;100882.56;;;3.80;93.97
32733;BME280;11867;51.198;11.966;2023-12-07T16:07:27;100883.13;;;2.75;98.52
32733;BME280;11867;51.198;11.966;2023-12-07T16:12:50;100882.97;;;3.77;94.69
32733;BME280;11867;51.198;11.966;2023-12-07T16:18:14;100881.34;;;3.76;93.07
32733;BME280;11867;51.198;11.966;2023-12-07T16:23:38;100887.97;;;4.17;91.27
32733;BME280;11867;51.198;11.966;2023-12-07T16:29:04;100890.72;;;4.48;89.38
32733;BME280;11867;51.198;11.966;2023-12-07T16:34:29;100877.69;;;4.44;90.29
32733;BME280;11867;51.198;11.966;2023-12-07T16:39:53;100894.00;;;3.94;92.60
32733;BME280;11867;51.198;11.966;2023-12-07T16:45:18;100887.63;;;4.62;89.29
32733;BME280;11867;51.198;11.966;2023-12-07T16:50:43;100887.66;;;4.25;90.81
32733;BME280;11867;51.198;11.966;2023-12-07T16:56:06;100892.84;;;4.27;90.37
32733;BME280;11867;51.198;11.966;2023-12-07T17:01:29;100893.66;;;4.28;89.90
32733;BME280;11867;51.198;11.966;2023-12-07T17:06:54;100891.13;;;4.33;90.63
32733;BME280;11867;51.198;11.966;2023-12-07T17:12:19;100888.41;;;4.81;88.32
32733;BME280;11867;51.198;11.966;2023-12-07T17:17:42;100877.16;;;4.36;90.20
32733;BME280;11867;51.198;11.966;2023-12-07T17:23:06;100868.94;;;4.31;89.31
32733;BME280;11867;51.198;11.966;2023-12-07T17:28:29;100865.03;;;4.27;89.86
32733;BME280;11867;51.198;11.966;2023-12-07T17:33:52;100853.41;;;4.26;90.46
32733;BME280;11867;51.198;11.966;2023-12-07T17:39:20;100863.47;;;4.68;88.68
32733;BME280;11867;51.198;11.966;2023-12-07T17:44:43;100861.50;;;4.75;88.43
32733;BME280;11867;51.198;11.966;2023-12-07T17:50:07;100860.91;;;4.06;89.91
32733;BME280;11867;51.198;11.966;2023-12-07T17:55:32;100850.31;;;4.41;89.41
32733;BME280;11867;51.198;11.966;2023-12-07T18:00:56;100841.84;;;4.37;87.81
32733;BME280;11867;51.198;11.966;2023-12-07T18:06:19;100841.84;;;2.88;93.65
32733;BME280;11867;51.198;11.966;2023-12-07T18:11:44;100822.06;;;3.26;92.32
32733;BME280;11867;51.198;11.966;2023-12-07T18:17:06;100817.44;;;2.45;94.54
32733;BME280;11867;51.198;11.966;2023-12-07T18:22:30;100808.75;;;3.31;89.98
32733;BME280;11867;51.198;11.966;2023-12-07T18:27:54;100811.16;;;2.12;95.16
32733;BME280;11867;51.198;11.966;2023-12-07T18:33:17;100796.53;;;2.47;94.87
32733;BME280;11867;51.198;11.966;2023-12-07T18:38:40;100790.44;;;2.58;95.63
32733;BME280;11867;51.198;11.966;2023-12-07T18:44:05;100795.63;;;3.35;90.83
32733;BME280;11867;51.198;11.966;2023-12-07T18:49:27;100789.50;;;3.02;92.15
32733;BME280;11867;51.198;11.966;2023-12-07T18:54:51;100796.84;;;3.64;89.30
32733;BME280;11867;51.198;11.966;2023-12-07T19:00:15;100789.31;;;3.48;89.46
32733;BME280;11867;51.198;11.966;2023-12-07T19:05:42;100782.13;;;2.91;91.50
32733;BME280;11867;51.198;11.966;2023-12-07T19:11:05;100774.63;;;3.00;92.54
32733;BME280;11867;51.198;11.966;2023-12-07T19:16:29;100765.16;;;2.91;92.65
32733;BME280;11867;51.198;11.966;2023-12-07T19:21:52;100753.25;;;3.23;91.38
32733;BME280;11867;51.198;11.966;2023-12-07T19:27:17;100748.44;;;2.18;96.12
32733;BME280;11867;51.198;11.966;2023-12-07T19:32:41;100732.09;;;2.77;94.04
32733;BME280;11867;51.198;11.966;2023-12-07T19:38:05;100734.75;;;3.09;90.79
32733;BME280;11867;51.198;11.966;2023-12-07T19:43:27;100728.97;;;3.05;90.21
32733;BME280;11867;51.198;11.966;2023-12-07T19:48:53;100733.28;;;2.88;89.98
32733;BME280;11867;51.198;11.966;2023-12-07T19:54:16;100731.63;;;2.87;89.66
32733;BME280;11867;51.198;11.966;2023-12-07T19:59:45;100726.69;;;2.83;89.64
32733;BME280;11867;51.198;11.966;2023-12-07T20:05:09;100736.81;;;2.25;91.45
32733;BME280;11867;51.198;11.966;2023-12-07T20:10:32;100725.66;;;2.28;93.06
32733;BME280;11867;51.198;11.966;2023-12-07T20:15:56;100709.31;;;2.54;90.70
32733;BME280;11867;51.198;11.966;2023-12-07T20:21:20;100698.22;;;2.44;90.28
32733;BME280;11867;51.198;11.966;2023-12-07T20:26:44;100698.03;;;2.07;91.81
32733;BME280;11867;51.198;11.966;2023-12-07T20:32:07;100707.41;;;1.91;92.28
32733;BME280;11867;51.198;11.966;2023-12-07T20:37:31;100704.31;;;1.36;94.70
32733;BME280;11867;51.198;11.966;2023-12-07T20:42:54;100704.75;;;1.19;96.36
32733;BME280;11867;51.198;11.966;2023-12-07T20:48:17;100700.63;;;1.30;96.32
32733;BME280;11867;51.198;11.966;2023-12-07T20:53:42;100704.06;;;1.57;94.10
32733;BME280;11867;51.198;11.966;2023-12-07T20:59:05;100687.56;;;1.92;91.67
32733;BME280;11867;51.198;11.966;2023-12-07T21:04:28;100684.94;;;1.79;92.05
32733;BME280;11867;51.198;11.966;2023-12-07T21:09:52;100681.25;;;1.02;95.51
32733;BME280;11867;51.198;11.966;2023-12-07T21:15:15;100671.47;;;1.27;96.45
32733;BME280;11867;51.198;11.966;2023-12-07T21:20:38;100682.09;;;0.82;98.00
32733;BME280;11867;51.198;11.966;2023-12-07T21:26:03;100657.28;;;1.07;95.94
32733;BME280;11867;51.198;11.966;2023-12-07T21:31:27;100662.84;;;1.05;95.31
32733;BME280;11867;51.198;11.966;2023-12-07T21:36:50;100666.44;;;0.59;98.44
32733;BME280;11867;51.198;11.966;2023-12-07T21:42:16;100667.00;;;0.94;97.20
32733;BME280;11867;51.198;11.966;2023-12-07T21:47:39;100666.00;;;0.29;100.00
32733;BME280;11867;51.198;11.966;2023-12-07T21:53:02;100661.44;;;0.09;100.00
32733;BME280;11867;51.198;11.966;2023-12-07T21:58:27;100655.28;;;0.35;100.00
32733;BME280;11867;51.198;11.966;2023-12-07T22:03:50;100641.19;;;0.87;96.35
32733;BME280;11867;51.198;11.966;2023-12-07T22:09:13;100633.38;;;0.72;96.00
32733;BME280;11867;51.198;11.966;2023-12-07T22:14:37;100636.88;;;0.86;94.38
32733;BME280;11867;51.198;11.966;2023-12-07T22:20:00;100638.56;;;0.33;95.28
32733;BME280;11867;51.198;11.966;2023-12-07T22:25:23;100633.63;;;0.44;97.43
32733;BME280;11867;51.198;11.966;2023-12-07T22:30:47;100620.19;;;0.10;100.00
32733;BME280;11867;51.198;11.966;2023-12-07T22:36:13;100612.34;;;0.55;95.67
32733;BME280;11867;51.198;11.966;2023-12-07T22:41:36;100607.22;;;0.34;96.69
32733;BME280;11867;51.198;11.966;2023-12-07T22:47:01;100597.72;;;0.25;96.98
32733;BME280;11867;51.198;11.966;2023-12-07T22:52:23;100570.25;;;-0.24;100.00
32733;BME280;11867;51.198;11.966;2023-12-07T22:57:46;100563.53;;;-0.75;100.00
32733;BME280;11867;51.198;11.966;2023-12-07T23:03:11;100557.53;;;-0.77;100.00
32733;BME280;11867;51.198;11.966;2023-12-07T23:08:34;100542.56;;;-0.65;100.00
32733;BME280;11867;51.198;11.966;2023-12-07T23:13:56;100543.22;;;-0.36;100.00
32733;BME280;11867;51.198;11.966;2023-12-07T23:19:21;100530.59;;;-0.69;100.00
32733;BME280;11867;51.198;11.966;2023-12-07T23:24:44;100533.09;;;-0.61;100.00
32733;BME280;11867;51.198;11.966;2023-12-07T23:30:08;100537.47;;;-0.26;99.84
32733;BME280;11867;51.198;11.966;2023-12-07T23:35:32;100516.44;;;-0.36;99.26
32733;BME280;11867;51.198;11.966;2023-12-07T23:40:55;100512.09;;;-0.44;100.00
32733;BME280;11867;51.198;11.966;2023-12-07T23:46:18;100494.38;;;-0.45;100.00
32733;BME280;11867;51.198;11.966;2023-12-07T23:51:43;100486.31;;;-0.78;100.00
32733;BME280;11867;51.198;11.966;2023-12-07T23:57:06;100477.50;;;-0.45;99.26
